Time;durP1;ratioP1;P1;durP2;ratioP2;P2;SDS_P1;SDS_P2;PMS_P1;PMS_P2;Temp;Humidity;BMP_temperature;BMP_pressure;BME280_temperature;BME280_humidity;BME280_pressure;Samples;Min_cycle;Max_cycle;Signal;HPM_P1;HPM_P2
2021/09/11 00:01:36;;;;;;;10.90;8.77;;;16.70;99.90;;;;;;4975802;28;20670;-81
2021/09/11 00:04:01;;;;;;;12.73;9.43;;;16.70;99.90;;;;;;4979040;28;20191;-82
2021/09/11 00:06:27;;;;;;;9.53;8.53;;;16.60;99.90;;;;;;4980432;28;20188;-82
2021/09/11 00:08:53;;;;;;;10.90;8.43;;;16.60;99.90;;;;;;4981036;28;20523;-82
2021/09/11 00:11:18;;;;;;;9.90;8.90;;;16.60;99.90;;;;;;4980020;28;20210;-82
2021/09/11 00:13:44;;;;;;;9.73;8.77;;;16.50;99.90;;;;;;4980143;28;20196;-82
2021/09/11 00:16:10;;;;;;;9.80;8.60;;;16.40;99.90;;;;;;4980126;28;20326;-82
2021/09/11 00:18:35;;;;;;;10.53;8.27;;;16.40;99.90;;;;;;4979460;28;20300;-82
2021/09/11 00:21:01;;;;;;;8.83;7.93;;;16.40;99.90;;;;;;4979392;28;20207;-82
2021/09/11 00:23:27;;;;;;;10.33;8.33;;;16.40;99.90;;;;;;4982593;28;20187;-82
2021/09/11 00:25:52;;;;;;;9.33;8.10;;;16.40;99.90;;;;;;4985241;28;20645;-82
2021/09/11 00:28:18;;;;;;;9.93;8.07;;;16.40;99.90;;;;;;4987694;28;20176;-82
2021/09/11 00:30:44;;;;;;;9.93;8.20;;;16.40;99.90;;;;;;4984636;28;20659;-82
2021/09/11 00:33:09;;;;;;;8.80;7.63;;;16.30;99.90;;;;;;4982944;28;20693;-81
2021/09/11 00:35:35;;;;;;;9.27;8.23;;;16.40;99.90;;;;;;4982434;28;20192;-82
2021/09/11 00:38:00;;;;;;;11.37;8.37;;;16.30;99.90;;;;;;4983285;28;20172;-82
2021/09/11 00:40:26;;;;;;;9.53;8.40;;;16.30;99.90;;;;;;4981999;28;20207;-82
2021/09/11 00:42:52;;;;;;;8.83;7.87;;;16.30;99.90;;;;;;4989598;28;20235;-82
2021/09/11 00:45:20;;;;;;;8.53;7.70;;;16.30;99.90;;;;;;4992414;28;20180;-81
2021/09/11 00:47:46;;;;;;;8.37;7.57;;;16.40;99.90;;;;;;4986443;28;20184;-82
2021/09/11 00:50:13;;;;;;;7.80;7.00;;;16.40;99.90;;;;;;4981656;28;20254;-82
2021/09/11 00:52:41;;;;;;;8.70;7.80;;;16.30;99.90;;;;;;4982985;28;20275;-82
2021/09/11 00:55:08;;;;;;;8.47;7.27;;;16.40;99.90;;;;;;4982545;28;20207;-82
2021/09/11 00:57:36;;;;;;;7.83;6.80;;;16.30;99.90;;;;;;4983031;28;20179;-81
2021/09/11 01:00:04;;;;;;;7.83;6.77;;;16.30;99.90;;;;;;4982434;28;20196;-82
2021/09/11 01:02:34;;;;;;;8.47;7.23;;;16.30;99.90;;;;;;4982927;28;20548;-81
2021/09/11 01:05:07;;;;;;;8.00;7.17;;;16.30;99.90;;;;;;4981614;28;20259;-82
2021/09/11 01:07:34;;;;;;;8.53;7.37;;;16.20;99.90;;;;;;4982582;28;20177;-82
2021/09/11 01:10:01;;;;;;;8.17;7.17;;;16.20;99.90;;;;;;4982279;28;20200;-82
2021/09/11 01:12:30;;;;;;;8.53;7.63;;;16.20;99.90;;;;;;4982342;28;20199;-82
2021/09/11 01:15:03;;;;;;;7.37;6.67;;;16.30;99.90;;;;;;4983617;28;20212;-82
2021/09/11 01:17:29;;;;;;;8.30;7.47;;;16.30;99.90;;;;;;4982533;28;20169;-82
2021/09/11 01:19:55;;;;;;;9.17;7.47;;;16.30;99.90;;;;;;4982314;28;20534;-82
2021/09/11 01:22:20;;;;;;;8.33;7.43;;;16.30;99.90;;;;;;4983629;28;20253;-82
2021/09/11 01:24:59;;;;;;;9.30;7.30;;;16.20;99.90;;;;;;4984670;28;20191;-82
2021/09/11 01:27:26;;;;;;;9.13;8.23;;;16.20;99.90;;;;;;4987100;28;20176;-82
2021/09/11 01:30:00;;;;;;;9.73;8.13;;;16.20;99.90;;;;;;4983500;28;20270;-82
2021/09/11 01:32:28;;;;;;;8.47;7.40;;;16.20;99.90;;;;;;4980980;28;20684;-82
2021/09/11 01:34:53;;;;;;;8.47;7.67;;;16.10;99.90;;;;;;4943566;28;1147535;-82
2021/09/11 01:37:19;;;;;;;7.80;7.00;;;16.10;99.90;;;;;;4982782;28;20247;-82
2021/09/11 01:39:49;;;;;;;8.30;7.40;;;16.20;99.90;;;;;;4983667;28;20190;-82
2021/09/11 01:42:20;;;;;;;11.10;7.90;;;16.20;99.90;;;;;;4984353;28;20281;-82
2021/09/11 01:44:50;;;;;;;7.67;6.87;;;16.10;99.90;;;;;;4982435;28;20259;-82
2021/09/11 01:47:16;;;;;;;7.77;6.97;;;16.10;99.90;;;;;;4983448;28;20529;-83
2021/09/11 01:49:42;;;;;;;7.90;7.10;;;16.10;99.90;;;;;;4981953;28;20215;-82
2021/09/11 01:52:08;;;;;;;8.07;7.07;;;16.00;99.90;;;;;;4983071;28;20243;-82
2021/09/11 01:54:35;;;;;;;7.60;6.80;;;16.00;99.90;;;;;;4983041;28;20651;-82
2021/09/11 01:57:01;;;;;;;8.83;7.20;;;16.00;99.90;;;;;;4983075;28;20183;-83
2021/09/11 01:59:27;;;;;;;8.87;7.43;;;16.00;99.90;;;;;;4981755;28;20650;-83
2021/09/11 02:01:53;;;;;;;8.87;6.97;;;;;;;;;;4981614;28;20207;-83
2021/09/11 02:04:18;;;;;;;7.67;6.87;;;16.00;99.90;;;;;;4981695;28;20689;-82
2021/09/11 02:06:44;;;;;;;9.43;8.43;;;;;;;;;;4980402;28;20184;-83
2021/09/11 02:09:11;;;;;;;8.83;7.93;;;15.90;99.90;;;;;;4979551;28;20235;-82
2021/09/11 02:11:36;;;;;;;8.77;7.87;;;15.80;99.90;;;;;;4979010;28;20196;-82
2021/09/11 02:14:03;;;;;;;10.93;8.83;;;15.70;99.90;;;;;;4978317;28;20270;-82
2021/09/11 02:16:28;;;;;;;9.63;8.10;;;15.70;99.90;;;;;;4979097;28;20187;-82
2021/09/11 02:18:54;;;;;;;10.10;8.60;;;15.70;99.90;;;;;;4978389;28;20180;-82
2021/09/11 02:21:20;;;;;;;10.17;9.07;;;15.70;99.90;;;;;;4978075;28;20192;-82
2021/09/11 02:23:45;;;;;;;10.33;9.33;;;15.60;99.90;;;;;;4979494;28;20263;-82
2021/09/11 02:26:11;;;;;;;11.53;8.77;;;15.50;99.90;;;;;;4982189;28;20207;-83
2021/09/11 02:28:37;;;;;;;9.57;8.57;;;15.50;99.90;;;;;;4982251;28;20176;-83
2021/09/11 02:31:02;;;;;;;10.10;9.10;;;15.50;99.90;;;;;;4981941;28;20210;-83
2021/09/11 02:33:28;;;;;;;10.57;8.30;;;15.50;99.90;;;;;;4981786;28;20208;-83
2021/09/11 02:35:54;;;;;;;8.77;7.87;;;15.50;99.90;;;;;;4984323;28;20208;-82
2021/09/11 02:38:19;;;;;;;8.83;7.53;;;15.50;99.90;;;;;;4989633;28;20179;-83
2021/09/11 02:40:45;;;;;;;11.27;7.50;;;15.60;99.90;;;;;;4989000;28;20189;-83
2021/09/11 02:43:11;;;;;;;9.27;7.60;;;15.60;99.90;;;;;;4988152;28;20203;-83
2021/09/11 02:45:36;;;;;;;8.73;7.17;;;15.50;99.90;;;;;;4982089;28;20176;-83
2021/09/11 02:48:02;;;;;;;8.23;6.97;;;15.60;99.90;;;;;;4981485;28;20651;-83
2021/09/11 02:50:28;;;;;;;7.63;6.83;;;15.60;99.90;;;;;;4983975;28;20322;-82
2021/09/11 02:52:53;;;;;;;7.20;6.50;;;15.50;99.90;;;;;;4985464;28;20181;-82
2021/09/11 02:55:19;;;;;;;6.27;5.67;;;15.50;99.90;;;;;;4994833;28;20212;-82
2021/09/11 02:57:45;;;;;;;6.83;6.13;;;15.50;99.90;;;;;;4981133;28;20192;-81
2021/09/11 03:00:11;;;;;;;5.70;5.10;;;15.50;99.90;;;;;;4978904;28;20204;-83
2021/09/11 03:02:37;;;;;;;7.20;5.47;;;15.50;99.90;;;;;;4980904;28;20173;-83
2021/09/11 03:05:03;;;;;;;7.33;5.00;;;15.50;99.90;;;;;;4979613;28;20238;-83
2021/09/11 03:07:29;;;;;;;6.10;5.13;;;15.40;99.90;;;;;;4980933;28;20180;-82
2021/09/11 03:09:54;;;;;;;5.67;5.07;;;15.40;99.90;;;;;;4980928;28;20204;-82
2021/09/11 03:12:20;;;;;;;4.77;4.27;;;15.40;99.90;;;;;;4980532;28;20179;-83
2021/09/11 03:14:46;;;;;;;6.53;4.10;;;15.40;99.90;;;;;;4981076;28;20604;-84
2021/09/11 03:17:11;;;;;;;5.30;3.67;;;15.40;99.90;;;;;;4979666;28;20180;-82
2021/09/11 03:19:37;;;;;;;3.83;3.43;;;15.40;99.90;;;;;;4980532;28;20176;-82
2021/09/11 03:22:03;;;;;;;3.30;3.00;;;15.40;99.90;;;;;;4982638;28;20212;-82
2021/09/11 03:24:29;;;;;;;4.43;3.53;;;15.40;99.90;;;;;;4981763;28;20236;-82
2021/09/11 03:26:55;;;;;;;5.33;3.50;;;15.40;99.90;;;;;;4980933;28;20184;-82
2021/09/11 03:29:21;;;;;;;4.53;3.47;;;15.40;99.90;;;;;;4982780;28;20188;-82
2021/09/11 03:31:47;;;;;;;4.50;3.57;;;;;;;;;;4980810;28;20200;-82
2021/09/11 03:34:13;;;;;;;4.50;3.83;;;15.40;99.90;;;;;;4980721;28;20218;-83
2021/09/11 03:36:38;;;;;;;4.70;4.20;;;15.30;99.90;;;;;;4980892;28;20175;-83
2021/09/11 03:39:04;;;;;;;5.13;4.50;;;15.30;99.90;;;;;;4980392;28;20239;-83
2021/09/11 03:41:30;;;;;;;5.07;4.33;;;;;;;;;;4979039;28;20201;-82
2021/09/11 03:43:56;;;;;;;5.27;4.33;;;15.10;99.90;;;;;;4979088;28;20230;-83
2021/09/11 03:46:22;;;;;;;5.43;3.43;;;;;;;;;;4978803;28;20618;-84
2021/09/11 03:48:47;;;;;;;7.20;4.53;;;15.10;99.90;;;;;;4979169;28;20196;-83
2021/09/11 03:51:13;;;;;;;4.57;4.17;;;;;;;;;;4980616;28;20697;-82
2021/09/11 03:53:39;;;;;;;4.47;3.50;;;15.10;99.90;;;;;;4979331;28;20212;-82
2021/09/11 03:56:05;;;;;;;6.67;3.50;;;15.10;99.90;;;;;;4979705;28;20191;-82
2021/09/11 03:58:32;;;;;;;4.17;3.70;;;15.10;99.90;;;;;;4981208;28;20188;-82
2021/09/11 04:00:59;;;;;;;4.33;3.93;;;15.10;99.90;;;;;;4979530;28;20196;-82
2021/09/11 04:03:24;;;;;;;4.10;3.70;;;15.10;99.90;;;;;;4980275;28;20175;-82
2021/09/11 04:05:50;;;;;;;5.00;4.33;;;15.10;99.90;;;;;;4980510;28;20215;-82
2021/09/11 04:08:15;;;;;;;5.27;4.37;;;15.00;99.90;;;;;;4982537;28;20188;-83
2021/09/11 04:10:41;;;;;;;4.83;4.33;;;14.90;99.90;;;;;;4982577;28;20216;-82
2021/09/11 04:13:07;;;;;;;5.17;4.67;;;14.90;99.90;;;;;;4980965;28;20607;-83
2021/09/11 04:15:32;;;;;;;7.83;5.23;;;14.90;99.90;;;;;;4979155;28;20176;-83
2021/09/11 04:17:58;;;;;;;5.23;4.73;;;14.90;99.90;;;;;;4979401;28;20180;-83
2021/09/11 04:20:25;;;;;;;8.13;4.90;;;14.80;99.90;;;;;;4979111;28;20626;-83
2021/09/11 04:22:50;;;;;;;6.13;5.50;;;14.90;99.90;;;;;;4980367;28;20267;-84
2021/09/11 04:25:16;;;;;;;6.20;5.50;;;14.80;99.90;;;;;;4980269;28;20219;-84
2021/09/11 04:27:42;;;;;;;5.63;5.03;;;14.80;99.90;;;;;;4977967;28;20267;-84
2021/09/11 04:30:08;;;;;;;6.63;5.80;;;14.70;99.90;;;;;;4977638;28;20196;-84
2021/09/11 04:32:33;;;;;;;8.10;5.83;;;14.60;99.90;;;;;;4975516;28;20184;-84
2021/09/11 04:35:01;;;;;;;5.90;5.30;;;14.60;99.90;;;;;;4975269;28;20220;-84
2021/09/11 04:37:27;;;;;;;7.37;5.90;;;14.60;99.90;;;;;;4975347;28;20211;-84
2021/09/11 04:39:53;;;;;;;6.17;5.57;;;14.50;99.90;;;;;;4975725;28;20208;-84
2021/09/11 04:42:19;;;;;;;7.07;6.20;;;14.50;99.90;;;;;;4973920;28;20192;-84
2021/09/11 04:44:45;;;;;;;5.73;5.20;;;;;;;;;;4973959;28;20184;-84
2021/09/11 04:47:11;;;;;;;6.50;5.80;;;14.50;99.90;;;;;;4974617;28;20185;-84
2021/09/11 04:49:36;;;;;;;9.00;6.43;;;14.50;99.90;;;;;;4975164;28;20188;-84
2021/09/11 04:52:02;;;;;;;7.37;6.13;;;14.50;99.90;;;;;;4980052;28;20183;-84
2021/09/11 04:54:28;;;;;;;7.17;5.97;;;14.60;99.90;;;;;;4979694;28;20207;-84
2021/09/11 04:56:53;;;;;;;7.63;6.83;;;14.60;99.90;;;;;;4978414;28;20192;-84
2021/09/11 04:59:19;;;;;;;7.47;6.67;;;14.60;99.90;;;;;;4977774;28;20180;-84
2021/09/11 05:01:45;;;;;;;8.50;7.50;;;14.60;99.90;;;;;;4979371;28;20201;-83
2021/09/11 05:04:10;;;;;;;11.27;7.60;;;14.50;99.90;;;;;;4979197;28;20657;-84
2021/09/11 05:06:36;;;;;;;8.93;6.60;;;14.50;99.90;;;;;;4977955;28;20189;-84
2021/09/11 05:09:01;;;;;;;8.93;7.00;;;14.50;99.90;;;;;;4980398;28;20195;-84
2021/09/11 05:11:27;;;;;;;7.43;6.70;;;14.50;99.90;;;;;;4981779;28;20262;-83
2021/09/11 05:13:53;;;;;;;7.83;7.03;;;14.50;99.90;;;;;;4980830;28;20254;-84
2021/09/11 05:16:18;;;;;;;8.20;7.13;;;14.50;99.90;;;;;;4983497;28;20594;-83
2021/09/11 05:18:44;;;;;;;9.07;7.23;;;14.50;99.90;;;;;;4981123;28;20200;-83
2021/09/11 05:21:10;;;;;;;8.50;7.60;;;14.50;99.90;;;;;;4983104;28;20671;-83
2021/09/11 05:23:35;;;;;;;7.93;7.07;;;14.60;99.90;;;;;;4981396;28;20642;-83
2021/09/11 05:26:03;;;;;;;7.70;6.73;;;14.60;99.90;;;;;;4980984;28;20607;-83
2021/09/11 05:28:29;;;;;;;10.30;7.40;;;14.60;99.90;;;;;;4981446;28;20184;-83
2021/09/11 05:30:54;;;;;;;8.30;7.27;;;14.60;99.90;;;;;;4981959;28;20254;-83
2021/09/11 05:33:20;;;;;;;9.40;7.53;;;14.60;99.90;;;;;;4983721;28;20204;-83
2021/09/11 05:35:46;;;;;;;8.90;7.97;;;14.60;99.90;;;;;;4983872;28;20188;-83
2021/09/11 05:38:12;;;;;;;12.33;8.10;;;14.70;99.90;;;;;;4984868;28;20203;-83
2021/09/11 05:40:38;;;;;;;9.90;8.33;;;14.70;99.90;;;;;;4982582;28;20199;-83
2021/09/11 05:43:03;;;;;;;8.70;7.80;;;14.70;99.90;;;;;;4982567;28;20172;-83
2021/09/11 05:45:29;;;;;;;8.23;7.30;;;14.80;99.90;;;;;;4981051;28;20275;-83
2021/09/11 05:47:55;;;;;;;8.57;7.57;;;14.80;99.90;;;;;;4981196;28;20184;-83
2021/09/11 05:50:21;;;;;;;9.83;7.67;;;14.80;99.90;;;;;;4981651;28;20204;-83
2021/09/11 05:52:46;;;;;;;8.67;7.83;;;14.80;99.90;;;;;;4982985;28;20181;-83
2021/09/11 05:55:12;;;;;;;8.53;7.73;;;14.80;99.90;;;;;;4983657;28;20255;-83
2021/09/11 05:57:38;;;;;;;7.97;7.17;;;14.80;99.90;;;;;;4984853;28;20196;-83
2021/09/11 06:00:04;;;;;;;8.90;8.00;;;14.90;99.90;;;;;;4985991;28;20207;-83
2021/09/11 06:02:30;;;;;;;8.60;7.70;;;14.90;99.90;;;;;;4987205;28;20181;-82
2021/09/11 06:04:56;;;;;;;8.50;7.47;;;14.90;99.90;;;;;;4986305;28;20184;-83
2021/09/11 06:07:21;;;;;;;9.37;8.17;;;15.00;99.90;;;;;;4984909;28;20182;-83
2021/09/11 06:09:47;;;;;;;8.87;7.83;;;15.10;99.90;;;;;;4982501;28;20184;-83
2021/09/11 06:12:13;;;;;;;8.03;7.23;;;;;;;;;;4982529;28;20272;-83
2021/09/11 06:14:40;;;;;;;8.63;7.17;;;15.20;99.90;;;;;;4982767;28;20206;-83
2021/09/11 06:17:07;;;;;;;8.50;7.60;;;15.20;99.90;;;;;;4983428;28;20208;-83
2021/09/11 06:19:33;;;;;;;8.10;6.90;;;15.20;99.90;;;;;;4983389;28;20185;-82
2021/09/11 06:21:59;;;;;;;7.63;6.83;;;15.30;99.90;;;;;;4984245;28;20224;-82
2021/09/11 06:24:25;;;;;;;7.40;6.70;;;15.40;99.90;;;;;;4987026;28;20184;-82
2021/09/11 06:26:51;;;;;;;7.67;6.87;;;15.30;99.90;;;;;;4984161;28;20173;-82
2021/09/11 06:29:17;;;;;;;10.00;6.97;;;15.30;99.90;;;;;;4993747;28;20181;-81
2021/09/11 06:31:42;;;;;;;6.60;6.00;;;15.30;99.90;;;;;;4994629;28;20215;-81
2021/09/11 06:34:08;;;;;;;7.83;7.03;;;15.30;99.90;;;;;;4994562;28;20205;-82
2021/09/11 06:36:34;;;;;;;7.23;6.53;;;15.30;99.90;;;;;;4981747;28;20176;-82
2021/09/11 06:38:59;;;;;;;10.07;6.47;;;15.40;99.90;;;;;;4982142;28;20216;-82
2021/09/11 06:41:25;;;;;;;7.03;6.33;;;15.40;99.90;;;;;;4980803;28;20565;-82
2021/09/11 06:43:51;;;;;;;8.73;6.20;;;15.50;99.90;;;;;;4980890;28;20180;-82
2021/09/11 06:46:17;;;;;;;7.37;6.67;;;15.50;99.90;;;;;;4980825;28;20188;-82
2021/09/11 06:48:42;;;;;;;11.20;6.73;;;15.60;99.90;;;;;;4980747;28;20188;-82
2021/09/11 06:51:11;;;;;;;11.83;6.57;;;15.60;99.90;;;;;;4980379;28;20705;-82
2021/09/11 06:53:37;;;;;;;6.77;5.90;;;15.60;99.90;;;;;;4979509;28;20218;-82
2021/09/11 06:56:03;;;;;;;6.57;5.90;;;15.70;99.90;;;;;;4980966;28;20181;-82
2021/09/11 06:58:28;;;;;;;6.53;5.93;;;15.80;99.90;;;;;;4978810;28;20176;-82
2021/09/11 07:00:54;;;;;;;7.03;6.20;;;15.90;99.90;;;;;;4978296;28;20614;-82
2021/09/11 07:03:20;;;;;;;8.60;6.43;;;15.90;99.90;;;;;;4978834;28;20638;-81
2021/09/11 07:05:45;;;;;;;6.73;6.07;;;16.00;99.90;;;;;;4979033;28;20636;-81
2021/09/11 07:08:11;;;;;;;6.37;5.77;;;16.00;99.90;;;;;;4981559;28;20217;-82
2021/09/11 07:10:37;;;;;;;9.50;6.93;;;16.10;99.90;;;;;;4983809;28;20200;-81
2021/09/11 07:13:02;;;;;;;8.70;6.87;;;16.10;99.90;;;;;;4982149;28;20180;-82
2021/09/11 07:15:28;;;;;;;8.57;6.17;;;16.20;99.90;;;;;;4981226;28;20630;-82
2021/09/11 07:17:55;;;;;;;7.50;6.00;;;16.20;99.90;;;;;;4981445;28;20180;-82
2021/09/11 07:20:21;;;;;;;6.57;5.90;;;16.30;99.90;;;;;;4980632;28;20204;-82
2021/09/11 07:22:47;;;;;;;10.13;6.10;;;16.40;99.90;;;;;;4981529;28;20229;-83
2021/09/11 07:25:13;;;;;;;7.90;5.03;;;16.60;99.90;;;;;;4979281;28;20275;-83
2021/09/11 07:27:39;;;;;;;8.03;5.60;;;16.60;99.90;;;;;;4979605;28;20187;-82
2021/09/11 07:30:05;;;;;;;7.27;5.47;;;16.80;99.90;;;;;;4982173;28;20607;-82
2021/09/11 07:32:31;;;;;;;7.53;5.63;;;16.90;99.90;;;;;;4982200;28;20263;-82
2021/09/11 07:34:57;;;;;;;6.30;5.70;;;17.10;99.90;;;;;;4982870;28;20641;-82
2021/09/11 07:37:23;;;;;;;6.37;5.77;;;17.20;99.90;;;;;;4981448;28;20176;-82
2021/09/11 07:39:49;;;;;;;6.30;5.70;;;17.20;99.90;;;;;;4981017;28;20214;-82
2021/09/11 07:42:16;;;;;;;6.53;5.60;;;17.20;99.90;;;;;;4983266;28;20178;-82
2021/09/11 07:44:42;;;;;;;7.50;5.70;;;17.10;99.90;;;;;;4982652;28;20180;-82
2021/09/11 07:47:08;;;;;;;6.57;5.70;;;17.10;99.90;;;;;;4981437;28;20177;-83
2021/09/11 07:49:33;;;;;;;6.07;5.40;;;17.00;99.90;;;;;;4980539;28;20193;-82
2021/09/11 07:51:59;;;;;;;7.37;5.40;;;17.00;99.90;;;;;;4980428;28;20204;-82
2021/09/11 07:54:25;;;;;;;5.93;5.33;;;17.00;99.90;;;;;;4981886;28;20200;-82
2021/09/11 07:56:50;;;;;;;6.47;5.87;;;17.00;99.90;;;;;;4980653;28;20530;-82
2021/09/11 07:59:16;;;;;;;6.60;5.87;;;17.00;99.90;;;;;;4980387;28;20179;-82
2021/09/11 08:01:42;;;;;;;7.43;5.63;;;17.10;99.90;;;;;;4979015;28;20226;-82
2021/09/11 08:04:07;;;;;;;7.30;5.77;;;17.20;99.90;;;;;;4981895;28;20270;-82
2021/09/11 08:06:33;;;;;;;8.50;5.70;;;17.30;99.90;;;;;;4979509;28;20215;-83
2021/09/11 08:08:59;;;;;;;9.27;5.73;;;17.50;99.90;;;;;;4995474;28;20542;-82
2021/09/11 08:11:24;;;;;;;9.50;5.93;;;17.70;99.90;;;;;;4980400;28;20290;-82
2021/09/11 08:13:50;;;;;;;6.70;5.77;;;17.90;99.90;;;;;;4994325;28;20210;-82
2021/09/11 08:16:16;;;;;;;7.73;5.60;;;18.00;99.90;;;;;;4999845;28;20175;-82
2021/09/11 08:18:42;;;;;;;6.07;5.17;;;18.20;99.90;;;;;;5000343;28;20631;-83
2021/09/11 08:21:08;;;;;;;6.43;5.77;;;18.20;99.90;;;;;;5010130;28;20196;-82
2021/09/11 08:23:33;;;;;;;6.33;5.60;;;18.30;99.90;;;;;;5013876;28;20222;-82
2021/09/11 08:25:59;;;;;;;6.30;5.67;;;18.20;99.90;;;;;;5008827;28;20244;-82
2021/09/11 08:28:24;;;;;;;6.20;5.60;;;18.30;99.90;;;;;;4998976;28;20185;-82
2021/09/11 08:30:50;;;;;;;7.60;5.70;;;18.30;99.90;;;;;;4999549;28;20208;-82
2021/09/11 08:33:16;;;;;;;5.33;4.73;;;18.40;99.90;;;;;;5000249;28;20208;-81
2021/09/11 08:35:42;;;;;;;8.57;5.17;;;18.50;99.90;;;;;;4998763;28;20706;-82
2021/09/11 08:38:09;;;;;;;7.93;4.90;;;18.70;99.90;;;;;;4998674;28;20181;-81
2021/09/11 08:40:34;;;;;;;6.23;5.03;;;18.80;99.90;;;;;;4997880;28;20209;-81
2021/09/11 08:43:01;;;;;;;6.60;5.10;;;18.70;99.90;;;;;;5003418;28;20174;-80
2021/09/11 08:45:27;;;;;;;5.80;5.20;;;18.70;99.90;;;;;;5001579;28;20217;-81
2021/09/11 08:47:53;;;;;;;6.47;4.93;;;18.70;99.90;;;;;;5004029;28;20241;-80
2021/09/11 08:50:20;;;;;;;8.30;5.23;;;18.80;99.90;;;;;;5003929;28;20202;-80
2021/09/11 08:52:48;;;;;;;6.30;5.70;;;18.70;99.90;;;;;;5001956;28;20214;-81
2021/09/11 08:55:15;;;;;;;5.27;4.53;;;18.60;99.90;;;;;;5002760;28;20209;-81
2021/09/11 08:58:05;;;;;;;4.93;4.43;;;18.50;99.90;;;;;;5003060;28;20255;-81
2021/09/11 09:00:43;;;;;;;5.60;4.77;;;18.60;99.90;;;;;;5002525;28;20195;-80
2021/09/11 09:03:33;;;;;;;5.77;5.17;;;18.60;99.90;;;;;;5002987;28;20184;-80
2021/09/11 09:06:27;;;;;;;5.47;4.97;;;18.60;99.90;;;;;;5001019;28;20208;-80
2021/09/11 09:08:54;;;;;;;5.40;4.90;;;18.50;99.90;;;;;;5001161;28;20179;-80
2021/09/11 09:11:31;;;;;;;5.10;4.60;;;18.60;99.90;;;;;;5000814;28;20224;-81
2021/09/11 09:14:08;;;;;;;5.17;4.50;;;18.70;99.90;;;;;;4998957;28;20710;-81
2021/09/11 09:16:42;;;;;;;5.30;4.80;;;18.60;99.90;;;;;;4999033;28;20181;-81
2021/09/11 09:19:11;;;;;;;5.73;4.90;;;18.60;99.90;;;;;;4998146;28;20184;-80
2021/09/11 09:21:37;;;;;;;6.20;5.03;;;18.60;99.90;;;;;;5000499;28;20217;-80
2021/09/11 09:24:06;;;;;;;4.97;4.47;;;18.50;99.90;;;;;;5017275;28;20180;-81
2021/09/11 09:26:49;;;;;;;6.03;4.50;;;18.60;99.90;;;;;;5017971;28;20175;-81
2021/09/11 09:29:17;;;;;;;7.27;5.07;;;18.60;99.90;;;;;;5020328;28;20162;-81
2021/09/11 09:31:44;;;;;;;5.03;4.37;;;18.80;99.90;;;;;;5004955;28;20255;-83
2021/09/11 09:34:26;;;;;;;5.00;4.50;;;18.90;99.90;;;;;;5003485;28;20213;-82
2021/09/11 09:36:56;;;;;;;5.17;4.47;;;19.00;99.90;;;;;;5004272;28;20688;-82
2021/09/11 09:39:21;;;;;;;5.00;4.50;;;18.90;99.90;;;;;;5006521;28;20176;-82
2021/09/11 09:41:52;;;;;;;4.60;4.10;;;18.70;99.90;;;;;;5007555;28;20619;-82
2021/09/11 09:44:20;;;;;;;4.67;4.27;;;18.40;99.90;;;;;;5006554;28;20185;-84
2021/09/11 09:46:49;;;;;;;4.60;4.20;;;18.40;99.90;;;;;;5005015;28;20181;-83
2021/09/11 09:49:27;;;;;;;4.80;3.70;;;18.40;99.90;;;;;;5003013;28;20540;-81
2021/09/11 09:51:53;;;;;;;3.93;3.47;;;18.60;99.90;;;;;;5000987;28;20200;-80
2021/09/11 09:54:19;;;;;;;5.40;4.57;;;18.60;99.90;;;;;;5000935;28;20267;-80
2021/09/11 09:56:45;;;;;;;4.60;4.20;;;19.00;99.90;;;;;;5001424;28;20294;-80
2021/09/11 09:59:12;;;;;;;5.27;4.10;;;19.40;99.90;;;;;;5004530;28;20222;-81
2021/09/11 10:01:38;;;;;;;5.93;3.70;;;19.80;99.90;;;;;;5005794;28;20198;-81
2021/09/11 10:04:16;;;;;;;4.20;3.40;;;20.10;99.90;;;;;;5007349;28;20200;-81
2021/09/11 10:06:47;;;;;;;5.67;3.50;;;20.30;99.90;;;;;;5014536;28;20186;-81
2021/09/11 10:09:14;;;;;;;3.97;3.40;;;20.50;99.90;;;;;;5012509;28;20273;-81
2021/09/11 10:11:43;;;;;;;4.40;3.10;;;20.60;99.90;;;;;;5005527;28;20194;-81
2021/09/11 10:14:14;;;;;;;4.70;3.30;;;20.40;99.90;;;;;;4999646;28;20200;-82
2021/09/11 10:16:42;;;;;;;3.80;3.10;;;20.40;99.90;;;;;;4999856;28;20189;-82
2021/09/11 10:19:25;;;;;;;5.07;3.30;;;20.50;99.90;;;;;;5000690;28;20179;-81
2021/09/11 10:22:06;;;;;;;3.07;2.53;;;20.50;99.90;;;;;;5000743;28;20195;-81
2021/09/11 10:24:34;;;;;;;2.93;2.57;;;21.00;99.90;;;;;;4999921;28;20172;-82
2021/09/11 10:27:09;;;;;;;3.50;2.93;;;21.70;99.90;;;;;;5001030;28;20176;-82
2021/09/11 10:29:54;;;;;;;2.73;2.47;;;22.60;99.90;;;;;;4998278;28;20172;-81
2021/09/11 10:32:36;;;;;;;3.97;2.90;;;22.70;99.90;;;;;;4986217;28;20183;-82
2021/09/11 10:35:04;;;;;;;3.87;2.67;;;22.50;99.90;;;;;;4981148;28;20214;-82
2021/09/11 10:37:37;;;;;;;3.33;2.60;;;22.20;99.90;;;;;;4982390;28;20267;-82
2021/09/11 10:40:22;;;;;;;3.27;2.97;;;21.30;99.90;;;;;;4981066;28;20200;-82
2021/09/11 10:43:20;;;;;;;2.40;2.17;;;21.20;99.90;;;;;;4982400;28;20168;-80
2021/09/11 10:45:54;;;;;;;3.07;2.50;;;21.50;99.90;;;;;;4980238;28;20185;-80
2021/09/11 10:48:44;;;;;;;2.50;2.30;;;22.70;99.90;;;;;;4979955;28;20180;-83
2021/09/11 10:51:18;;;;;;;2.40;1.80;;;24.00;99.90;;;;;;4979746;28;20212;-82
2021/09/11 10:54:12;;;;;;;2.03;1.83;;;24.00;99.90;;;;;;4981128;28;20295;-80
2021/09/11 10:56:47;;;;;;;2.10;1.90;;;23.50;99.90;;;;;;4980812;28;20317;-80
2021/09/11 10:59:18;;;;;;;1.90;1.70;;;23.00;99.90;;;;;;4980151;28;20190;-82
2021/09/11 11:02:21;;;;;;;2.03;1.80;;;22.90;99.90;;;;;;4980934;28;20292;-81
2021/09/11 11:04:47;;;;;;;2.53;1.97;;;22.70;99.90;;;;;;4980301;28;20589;-81
2021/09/11 11:07:20;;;;;;;2.23;2.03;;;22.30;99.90;;;;;;4981630;28;20251;-82
2021/09/11 11:09:53;;;;;;;2.40;2.20;;;22.20;99.90;;;;;;4981744;28;20178;-82
2021/09/11 11:12:31;;;;;;;2.70;2.20;;;22.40;99.90;;;;;;4981615;28;20161;-81
2021/09/11 11:15:01;;;;;;;4.60;2.47;;;23.00;99.90;;;;;;4981117;28;20208;-81
2021/09/11 11:17:27;;;;;;;3.10;2.30;;;23.10;99.90;;;;;;4981662;28;20195;-81
2021/09/11 11:19:54;;;;;;;3.03;2.50;;;22.90;99.90;;;;;;4983042;28;20206;-81
2021/09/11 11:22:35;;;;;;;4.83;2.73;;;23.00;99.90;;;;;;4983385;28;20189;-82
2021/09/11 11:25:04;;;;;;;2.77;2.50;;;23.30;99.90;;;;;;4982889;28;20157;-81
2021/09/11 11:27:30;;;;;;;2.90;2.60;;;22.90;99.90;;;;;;4989131;28;20179;-80
2021/09/11 11:29:58;;;;;;;3.53;2.63;;;22.40;99.90;;;;;;4994770;28;20258;-81
2021/09/11 11:32:28;;;;;;;4.83;3.10;;;22.00;99.90;;;;;;4987366;28;20185;-80
2021/09/11 11:34:59;;;;;;;3.50;3.00;;;21.80;99.90;;;;;;4978088;28;20273;-81
2021/09/11 11:37:31;;;;;;;2.87;2.57;;;22.00;99.90;;;;;;4978855;28;20203;-80
2021/09/11 11:40:16;;;;;;;1.90;1.70;;;22.10;99.90;;;;;;4978762;28;20194;-80
2021/09/11 11:42:44;;;;;;;3.27;1.60;;;22.30;99.90;;;;;;4981265;28;20205;-79
2021/09/11 11:45:13;;;;;;;2.70;2.03;;;22.20;99.90;;;;;;4982843;28;20188;-79
2021/09/11 11:47:52;;;;;;;2.40;1.90;;;22.30;99.90;;;;;;4984197;28;20190;-80
2021/09/11 11:50:30;;;;;;;4.97;2.27;;;22.30;99.90;;;;;;4980971;28;20213;-80
2021/09/11 11:53:11;;;;;;;3.67;2.50;;;22.60;99.90;;;;;;4991958;28;20184;-80
2021/09/11 11:55:45;;;;;;;2.67;2.47;;;23.00;99.90;;;;;;4994314;28;20219;-82
2021/09/11 11:58:15;;;;;;;3.10;2.80;;;23.10;99.90;;;;;;4985522;28;20175;-82
2021/09/11 12:00:45;;;;;;;3.60;2.63;;;23.40;99.90;;;;;;4980910;28;20208;-82
2021/09/11 12:03:37;;;;;;;4.47;2.67;;;23.80;99.90;;;;;;4998631;28;20207;-82
2021/09/11 12:06:05;;;;;;;3.43;2.53;;;24.80;99.90;;;;;;5002176;28;20208;-82
2021/09/11 12:08:39;;;;;;;2.87;2.53;;;25.90;99.90;;;;;;5000973;28;20204;-82
2021/09/11 12:11:13;;;;;;;3.70;2.40;;;26.50;99.90;;;;;;5002690;28;20274;-81
2021/09/11 12:13:39;;;;;;;2.40;2.13;;;25.30;99.90;;;;;;5002328;28;20200;-82
2021/09/11 12:16:05;;;;;;;3.30;2.57;;;24.10;99.90;;;;;;5002478;28;20233;-82
2021/09/11 12:18:34;;;;;;;3.47;2.57;;;23.20;99.90;;;;;;5004450;28;20180;-81
2021/09/11 12:21:08;;;;;;;4.83;2.90;;;22.60;99.90;;;;;;5006223;28;20197;-81
2021/09/11 12:23:34;;;;;;;2.90;2.70;;;22.10;99.90;;;;;;5005397;28;20214;-81
2021/09/11 12:26:05;;;;;;;3.70;2.90;;;21.90;99.90;;;;;;5007072;28;20200;-82
2021/09/11 12:28:52;;;;;;;3.20;2.90;;;21.80;99.90;;;;;;5004902;28;20183;-81
2021/09/11 12:31:21;;;;;;;3.30;3.00;;;21.60;99.90;;;;;;5004277;28;20206;-81
2021/09/11 12:34:10;;;;;;;2.90;2.60;;;22.40;99.90;;;;;;5004513;28;20711;-81
2021/09/11 12:36:41;;;;;;;3.13;2.20;;;24.80;99.90;;;;;;5004956;28;20576;-81
2021/09/11 12:39:15;;;;;;;2.37;2.10;;;26.80;99.90;;;;;;5005144;28;20171;-82
2021/09/11 12:41:49;;;;;;;2.93;2.40;;;27.70;99.90;;;;;;5007183;28;20552;-82
2021/09/11 12:44:16;;;;;;;4.53;2.37;;;28.90;99.90;;;;;;5005692;28;20178;-82
2021/09/11 12:46:53;;;;;;;2.60;2.40;;;29.50;99.90;;;;;;5005773;28;20177;-82
2021/09/11 12:49:22;;;;;;;2.50;2.30;;;29.90;99.90;;;;;;5006889;28;20197;-82
2021/09/11 12:51:50;;;;;;;2.53;2.33;;;30.20;99.90;;;;;;5007077;28;20205;-83
2021/09/11 12:54:16;;;;;;;2.57;1.73;;;30.70;99.90;;;;;;5009689;28;20212;-82